createdAt,value
2019-03-17T00:00:56.648Z,10.80
2019-03-17T00:03:27.310Z,10.60
2019-03-17T00:05:57.797Z,10.60
2019-03-17T00:08:35.137Z,10.60
2019-03-17T00:11:05.191Z,10.50
2019-03-17T00:13:35.311Z,10.50
2019-03-17T00:16:05.717Z,10.60
2019-03-17T00:18:35.745Z,10.70
2019-03-17T00:21:06.707Z,10.80
2019-03-17T00:23:36.750Z,10.80
2019-03-17T00:26:07.022Z,10.90
2019-03-17T00:28:37.193Z,10.90
2019-03-17T00:31:07.346Z,10.90
2019-03-17T00:33:37.582Z,11.00
2019-03-17T00:36:07.837Z,11.00
2019-03-17T00:38:38.053Z,11.00
2019-03-17T00:41:08.238Z,11.00
2019-03-17T00:43:38.463Z,11.00
2019-03-17T00:46:08.617Z,11.00
2019-03-17T00:48:40.285Z,10.90
2019-03-17T00:51:10.363Z,10.90
2019-03-17T00:53:40.394Z,10.90
2019-03-17T00:56:10.535Z,10.90
2019-03-17T00:58:40.643Z,10.90
2019-03-17T01:01:10.771Z,10.90
2019-03-17T01:03:40.902Z,10.80
2019-03-17T01:06:11.082Z,10.80
2019-03-17T01:08:41.506Z,10.70
2019-03-17T01:11:11.631Z,10.70
2019-03-17T01:13:41.671Z,10.70
2019-03-17T01:16:11.909Z,10.70
2019-03-17T01:18:42.190Z,10.70
2019-03-17T01:21:12.351Z,10.70
2019-03-17T01:23:42.508Z,10.70
2019-03-17T01:26:12.694Z,10.70
2019-03-17T01:28:42.935Z,10.60
2019-03-17T01:31:13.188Z,10.60
2019-03-17T01:33:43.325Z,10.60
2019-03-17T01:36:13.704Z,10.60
2019-03-17T01:38:43.735Z,10.60
2019-03-17T01:41:13.906Z,10.60
2019-03-17T01:43:44.114Z,10.50
2019-03-17T01:46:14.254Z,10.50
2019-03-17T01:48:47.054Z,10.50
2019-03-17T01:51:17.102Z,10.50
2019-03-17T01:53:47.235Z,10.50
2019-03-17T01:56:17.324Z,10.50
2019-03-17T01:58:47.413Z,10.50
2019-03-17T02:01:17.483Z,10.50
2019-03-17T02:03:47.622Z,10.50
2019-03-17T02:06:20.867Z,10.40
2019-03-17T02:08:51.084Z,10.40
2019-03-17T02:11:21.169Z,10.20
2019-03-17T02:13:51.410Z,10.20
2019-03-17T02:16:21.531Z,10.10
2019-03-17T02:18:51.983Z,10.00
2019-03-17T02:21:22.046Z,10.00
2019-03-17T02:23:52.171Z,10.00
2019-03-17T02:26:22.376Z,10.00
2019-03-17T02:28:52.515Z,10.00
2019-03-17T02:31:22.646Z,9.90
2019-03-17T02:33:52.676Z,9.90
2019-03-17T02:36:23.088Z,9.80
2019-03-17T02:38:53.472Z,9.70
2019-03-17T02:41:23.763Z,9.70
2019-03-17T02:44:06.717Z,9.60
2019-03-17T02:46:36.848Z,9.60
2019-03-17T02:49:13.115Z,9.60
2019-03-17T02:51:44.159Z,9.60
2019-03-17T02:54:15.447Z,9.60
2019-03-17T02:56:45.751Z,9.60
2019-03-17T02:59:16.042Z,9.60
2019-03-17T03:01:47.251Z,9.60
2019-03-17T03:04:17.382Z,9.70
2019-03-17T03:06:47.453Z,9.60
2019-03-17T03:09:17.474Z,9.70
2019-03-17T03:11:47.638Z,9.70
2019-03-17T03:14:17.748Z,9.70
2019-03-17T03:16:47.982Z,9.60
2019-03-17T03:19:18.014Z,9.60
2019-03-17T03:21:48.203Z,9.60
2019-03-17T03:24:18.826Z,9.60
2019-03-17T03:26:48.890Z,9.60
2019-03-17T03:29:18.916Z,9.50
2019-03-17T03:31:48.973Z,9.50
2019-03-17T03:34:19.289Z,9.40
2019-03-17T03:36:49.543Z,9.30
2019-03-17T03:39:19.714Z,9.20
2019-03-17T03:41:50.645Z,9.20
2019-03-17T03:44:20.656Z,9.20
2019-03-17T03:46:50.707Z,9.10
2019-03-17T03:49:20.833Z,9.10
2019-03-17T03:51:51.118Z,9.10
2019-03-17T03:54:21.174Z,9.10
2019-03-17T03:56:51.223Z,9.10
2019-03-17T03:59:21.617Z,9.10
2019-03-17T04:01:53.539Z,9.10
2019-03-17T04:04:23.635Z,9.10
2019-03-17T04:06:53.758Z,9.20
2019-03-17T04:09:23.952Z,9.20
2019-03-17T04:11:54.028Z,9.20
2019-03-17T04:14:24.156Z,9.10
2019-03-17T04:16:54.410Z,9.10
2019-03-17T04:19:24.616Z,9.10
2019-03-17T04:21:54.849Z,9.00
2019-03-17T04:24:25.252Z,9.00
2019-03-17T04:26:55.346Z,9.00
2019-03-17T04:29:25.490Z,8.90
2019-03-17T04:31:58.716Z,8.90
2019-03-17T04:34:28.807Z,8.90
2019-03-17T04:36:59.052Z,8.80
2019-03-17T04:39:29.444Z,8.70
2019-03-17T04:41:59.550Z,8.70
2019-03-17T04:44:29.894Z,8.60
2019-03-17T04:47:01.474Z,8.60
2019-03-17T04:49:31.695Z,8.60
2019-03-17T04:52:01.871Z,8.60
2019-03-17T04:54:32.132Z,8.60
2019-03-17T04:57:02.300Z,8.60
2019-03-17T04:59:32.327Z,8.50
2019-03-17T05:02:02.474Z,8.50
2019-03-17T05:04:33.906Z,8.50
2019-03-17T05:07:03.976Z,8.50
2019-03-17T05:09:34.079Z,8.40
2019-03-17T05:12:04.218Z,8.40
2019-03-17T05:14:35.376Z,8.30
2019-03-17T05:17:05.529Z,8.20
2019-03-17T05:19:35.648Z,8.20
2019-03-17T05:22:05.693Z,8.10
2019-03-17T05:24:35.745Z,8.00
2019-03-17T05:27:05.915Z,8.00
2019-03-17T05:29:36.245Z,7.90
2019-03-17T05:32:06.319Z,7.90
2019-03-17T05:34:36.484Z,7.90
2019-03-17T05:37:09.583Z,7.90
2019-03-17T05:39:39.610Z,7.80
2019-03-17T05:42:11.379Z,7.80
2019-03-17T05:44:41.409Z,7.80
2019-03-17T05:47:11.553Z,7.80
2019-03-17T05:49:41.614Z,7.70
2019-03-17T05:52:11.939Z,7.70
2019-03-17T05:54:41.971Z,7.70
2019-03-17T05:57:12.225Z,7.70
2019-03-17T05:59:42.384Z,7.70
2019-03-17T06:02:12.526Z,7.70
2019-03-17T06:04:42.758Z,7.70
2019-03-17T06:07:18.540Z,7.70
2019-03-17T06:09:44.820Z,7.70
2019-03-17T06:12:14.950Z,7.70
2019-03-17T06:14:44.957Z,7.70
2019-03-17T06:17:15.022Z,7.80
2019-03-17T06:19:45.042Z,7.70
2019-03-17T06:22:15.376Z,7.80
2019-03-17T06:24:45.499Z,7.80
2019-03-17T06:27:15.580Z,7.80
2019-03-17T06:29:45.718Z,7.90
2019-03-17T06:32:16.128Z,7.90
2019-03-17T06:34:46.171Z,7.90
2019-03-17T06:37:30.440Z,7.90
2019-03-17T06:39:51.088Z,7.90
2019-03-17T06:42:21.199Z,7.90
2019-03-17T06:44:51.327Z,7.90
2019-03-17T06:47:21.502Z,7.90
2019-03-17T06:49:51.657Z,8.00
2019-03-17T06:52:21.850Z,8.00
2019-03-17T06:54:51.897Z,8.00
2019-03-17T06:57:22.004Z,8.00
2019-03-17T06:59:52.138Z,8.00
2019-03-17T07:02:24.002Z,8.00
2019-03-17T07:04:54.525Z,8.00
2019-03-17T07:07:24.753Z,8.00
2019-03-17T07:09:54.906Z,8.00
2019-03-17T07:12:25.051Z,8.10
2019-03-17T07:14:55.265Z,8.00
2019-03-17T07:17:25.805Z,8.00
2019-03-17T07:19:56.182Z,8.10
2019-03-17T07:22:26.374Z,8.20
2019-03-17T07:24:57.139Z,8.20
2019-03-17T07:27:27.501Z,8.30
2019-03-17T07:29:57.874Z,8.40
2019-03-17T07:32:28.127Z,8.40
2019-03-17T07:35:01.857Z,8.30
2019-03-17T07:37:32.240Z,8.30
2019-03-17T07:40:02.599Z,8.30
2019-03-17T07:42:32.897Z,8.30
2019-03-17T07:45:03.135Z,8.30
2019-03-17T07:47:35.596Z,8.30
2019-03-17T07:50:05.971Z,8.30
2019-03-17T07:52:36.095Z,8.30
2019-03-17T07:55:07.245Z,8.30
2019-03-17T07:57:37.508Z,8.30
2019-03-17T08:00:08.228Z,8.30
2019-03-17T08:02:38.381Z,8.40
2019-03-17T08:05:08.578Z,8.40
2019-03-17T08:07:38.676Z,8.50
2019-03-17T08:10:10.251Z,8.50
2019-03-17T08:12:40.538Z,8.40
2019-03-17T08:15:11.443Z,8.50
2019-03-17T08:17:41.588Z,8.70
2019-03-17T08:20:11.895Z,8.80
2019-03-17T08:22:42.600Z,9.00
2019-03-17T08:25:12.749Z,9.20
2019-03-17T08:27:42.931Z,9.20
2019-03-17T08:30:13.081Z,9.20
2019-03-17T08:32:44.427Z,9.20
2019-03-17T08:35:14.571Z,8.90
2019-03-17T08:37:44.760Z,8.70
2019-03-17T08:40:14.989Z,8.50
2019-03-17T08:42:45.141Z,8.40
2019-03-17T08:45:15.184Z,8.30
2019-03-17T08:47:57.101Z,8.30
2019-03-17T08:50:17.178Z,8.40
2019-03-17T08:52:47.360Z,8.50
2019-03-17T08:55:17.402Z,8.60
2019-03-17T08:57:47.485Z,8.80
2019-03-17T09:00:17.623Z,8.90
2019-03-17T09:02:47.780Z,9.20
2019-03-17T09:05:17.986Z,9.60
2019-03-17T09:07:48.153Z,10.10
2019-03-17T09:10:18.392Z,10.20
2019-03-17T09:12:49.675Z,10.20
2019-03-17T09:15:19.870Z,10.20
2019-03-17T09:17:50.094Z,10.30
2019-03-17T09:20:20.315Z,10.40
2019-03-17T09:22:50.475Z,10.50
2019-03-17T09:25:20.714Z,10.40
2019-03-17T09:27:50.953Z,10.40
2019-03-17T09:30:21.130Z,10.50
2019-03-17T09:32:51.259Z,10.60
2019-03-17T09:35:21.409Z,10.80
2019-03-17T09:37:51.449Z,10.90
2019-03-17T09:40:21.473Z,11.00
2019-03-17T09:42:51.587Z,11.00
2019-03-17T09:45:21.652Z,10.90
2019-03-17T09:48:02.248Z,10.70
2019-03-17T09:50:34.168Z,10.70
2019-03-17T09:53:04.641Z,11.00
2019-03-17T09:55:34.841Z,11.30
2019-03-17T09:58:05.051Z,11.20
2019-03-17T10:00:35.336Z,10.90
2019-03-17T10:03:05.564Z,10.60
2019-03-17T10:05:35.786Z,10.40
2019-03-17T10:08:06.225Z,10.20
2019-03-17T10:10:36.630Z,10.30
2019-03-17T10:13:06.867Z,10.40
2019-03-17T10:15:37.026Z,10.70
2019-03-17T10:18:07.094Z,10.80
2019-03-17T10:20:37.601Z,10.80
2019-03-17T10:23:07.846Z,10.80
2019-03-17T10:25:38.040Z,11.00
2019-03-17T10:28:08.176Z,11.20
2019-03-17T10:30:38.291Z,11.30
2019-03-17T10:33:08.443Z,11.50
2019-03-17T10:35:38.482Z,12.10
2019-03-17T10:38:08.822Z,12.60
2019-03-17T10:40:38.994Z,13.00
2019-03-17T10:43:09.199Z,13.00
2019-03-17T10:45:39.745Z,12.60
2019-03-17T10:48:09.904Z,12.20
2019-03-17T10:50:49.041Z,11.90
2019-03-17T10:53:11.986Z,11.70
2019-03-17T10:55:42.224Z,12.00
2019-03-17T10:58:12.401Z,12.20
2019-03-17T11:00:42.613Z,12.20
2019-03-17T11:03:12.691Z,12.00
2019-03-17T11:05:42.800Z,11.90
2019-03-17T11:08:15.996Z,11.90
2019-03-17T11:10:48.132Z,12.10
2019-03-17T11:13:18.323Z,12.40
2019-03-17T11:15:48.517Z,12.40
2019-03-17T11:18:18.814Z,12.30
2019-03-17T11:20:48.900Z,11.90
2019-03-17T11:23:19.223Z,11.60
2019-03-17T11:25:49.308Z,11.30
2019-03-17T11:28:19.840Z,11.20
2019-03-17T11:31:00.014Z,11.10
2019-03-17T11:33:30.171Z,11.30
2019-03-17T11:36:00.334Z,11.50
2019-03-17T11:38:30.439Z,11.80
2019-03-17T11:41:00.559Z,12.00
2019-03-17T11:43:30.616Z,12.10
2019-03-17T11:46:00.636Z,12.10
2019-03-17T11:48:31.108Z,12.10
2019-03-17T11:51:01.118Z,12.00
2019-03-17T11:53:31.296Z,11.90
2019-03-17T11:56:01.332Z,11.90
2019-03-17T11:58:31.743Z,11.70
2019-03-17T12:01:01.881Z,11.30
2019-03-17T12:03:32.226Z,10.80
2019-03-17T12:06:02.420Z,10.40
2019-03-17T12:08:32.509Z,10.10
2019-03-17T12:11:02.576Z,9.90
2019-03-17T12:13:33.044Z,10.00
2019-03-17T12:16:03.116Z,10.00
2019-03-17T12:18:33.213Z,10.10
2019-03-17T12:21:03.295Z,10.30
2019-03-17T12:23:33.323Z,10.50
2019-03-17T12:26:03.555Z,10.60
2019-03-17T12:28:33.673Z,10.80
2019-03-17T12:31:03.780Z,11.10
2019-03-17T12:33:34.009Z,11.30
2019-03-17T12:36:04.337Z,11.20
2019-03-17T12:38:34.411Z,10.90
2019-03-17T12:41:04.431Z,10.40
2019-03-17T12:43:38.139Z,10.00
2019-03-17T12:46:08.405Z,9.70
2019-03-17T12:48:38.531Z,9.40
2019-03-17T12:51:08.831Z,9.10
2019-03-17T12:53:38.894Z,8.90
2019-03-17T12:56:09.078Z,8.70
2019-03-17T12:58:39.408Z,8.60
2019-03-17T13:01:09.447Z,8.70
2019-03-17T13:03:41.381Z,8.90
2019-03-17T13:06:11.466Z,9.20
2019-03-17T13:08:41.545Z,9.30
2019-03-17T13:11:11.706Z,9.50
2019-03-17T13:13:41.855Z,9.70
2019-03-17T13:16:12.152Z,10.10
2019-03-17T13:18:42.231Z,10.50
2019-03-17T13:21:12.343Z,10.80
2019-03-17T13:23:42.426Z,10.80
2019-03-17T13:26:12.568Z,10.70
2019-03-17T13:28:42.641Z,10.60
2019-03-17T13:31:12.772Z,10.10
2019-03-17T13:33:42.893Z,9.20
2019-03-17T13:36:14.251Z,8.50
2019-03-17T13:38:44.562Z,7.80
2019-03-17T13:41:14.582Z,7.00
2019-03-17T13:43:44.836Z,6.50
2019-03-17T13:46:15.095Z,6.20
2019-03-17T13:48:45.156Z,6.20
2019-03-17T13:51:15.292Z,6.30
2019-03-17T13:53:45.351Z,6.40
2019-03-17T13:56:15.421Z,6.50
2019-03-17T13:58:45.598Z,6.60
2019-03-17T14:01:15.631Z,6.60
2019-03-17T14:03:45.842Z,6.70
2019-03-17T14:06:15.984Z,6.80
2019-03-17T14:08:46.450Z,7.10
2019-03-17T14:11:16.526Z,7.30
2019-03-17T14:13:46.587Z,7.60
2019-03-17T14:16:19.080Z,7.80
2019-03-17T14:18:49.219Z,8.10
2019-03-17T14:21:19.835Z,8.30
2019-03-17T14:23:50.103Z,8.60
2019-03-17T14:26:20.149Z,9.00
2019-03-17T14:28:50.511Z,9.30
2019-03-17T14:31:20.623Z,9.60
2019-03-17T14:33:52.712Z,9.70
2019-03-17T14:36:22.832Z,9.70
2019-03-17T14:38:53.045Z,9.70
2019-03-17T14:41:23.286Z,9.70
2019-03-17T14:43:53.545Z,9.60
2019-03-17T14:46:23.628Z,9.50
2019-03-17T14:48:54.162Z,9.50
2019-03-17T14:51:24.207Z,9.40
2019-03-17T14:53:54.393Z,9.40
2019-03-17T14:56:24.656Z,9.30
2019-03-17T14:58:54.812Z,9.40
2019-03-17T15:01:24.842Z,9.50
2019-03-17T15:03:55.103Z,9.50
2019-03-17T15:06:25.273Z,9.50
2019-03-17T15:08:55.621Z,9.50
2019-03-17T15:11:27.469Z,9.40
2019-03-17T15:13:57.542Z,9.50
2019-03-17T15:16:27.563Z,9.50
2019-03-17T15:18:57.794Z,9.60
2019-03-17T15:21:27.837Z,9.70
2019-03-17T15:23:57.983Z,9.70
2019-03-17T15:26:28.126Z,9.70
2019-03-17T15:28:58.193Z,9.70
2019-03-17T15:31:28.196Z,9.70
2019-03-17T15:33:58.428Z,9.70
2019-03-17T15:36:28.685Z,9.80
2019-03-17T15:38:59.179Z,9.90
2019-03-17T15:41:29.342Z,9.90
2019-03-17T15:43:59.590Z,9.70
2019-03-17T15:46:29.623Z,9.10
2019-03-17T15:48:59.694Z,8.20
2019-03-17T15:51:29.794Z,7.50
2019-03-17T15:53:59.979Z,7.00
2019-03-17T15:56:30.360Z,6.60
2019-03-17T15:59:00.456Z,6.20
2019-03-17T16:01:30.778Z,5.90
2019-03-17T16:04:00.968Z,5.70
2019-03-17T16:06:31.003Z,5.50
2019-03-17T16:09:01.376Z,5.30
2019-03-17T16:11:31.482Z,5.20
2019-03-17T16:14:01.642Z,5.10
2019-03-17T16:16:31.944Z,5.10
2019-03-17T16:19:02.157Z,5.00
2019-03-17T16:21:32.341Z,5.10
2019-03-17T16:24:02.775Z,5.20
2019-03-17T16:26:32.970Z,5.20
2019-03-17T16:29:03.293Z,5.30
2019-03-17T16:31:34.281Z,5.40
2019-03-17T16:34:04.353Z,5.40
2019-03-17T16:36:35.323Z,5.30
2019-03-17T16:39:08.407Z,5.20
2019-03-17T16:41:43.329Z,5.00
2019-03-17T16:44:11.061Z,4.90
2019-03-17T16:46:41.554Z,4.80
2019-03-17T16:49:11.673Z,4.70
2019-03-17T16:51:41.769Z,4.70
2019-03-17T16:54:12.082Z,4.70
2019-03-17T16:56:42.325Z,4.70
2019-03-17T16:59:12.769Z,4.60
2019-03-17T17:01:42.824Z,4.70
2019-03-17T17:04:13.192Z,4.70
2019-03-17T17:06:43.372Z,4.80
2019-03-17T17:09:13.455Z,4.80
2019-03-17T17:11:55.333Z,4.90
2019-03-17T17:14:15.409Z,5.00
2019-03-17T17:16:45.537Z,5.00
2019-03-17T17:19:15.784Z,5.00
2019-03-17T17:21:46.141Z,5.10
2019-03-17T17:24:16.218Z,5.10
2019-03-17T17:26:46.423Z,5.20
2019-03-17T17:29:16.926Z,5.20
2019-03-17T17:31:47.104Z,5.20
2019-03-17T17:34:17.299Z,5.20
2019-03-17T17:36:48.365Z,5.20
2019-03-17T17:39:18.472Z,5.20
2019-03-17T17:41:48.900Z,5.10
2019-03-17T17:44:19.528Z,5.00
2019-03-17T17:46:49.760Z,4.90
2019-03-17T17:49:19.966Z,4.90
2019-03-17T17:51:50.600Z,4.70
2019-03-17T17:54:20.821Z,4.60
2019-03-17T17:56:52.165Z,4.50
2019-03-17T17:59:22.745Z,4.50
2019-03-17T18:01:53.069Z,4.50
2019-03-17T18:04:23.543Z,4.40
2019-03-17T18:06:53.731Z,4.40
2019-03-17T18:09:23.862Z,4.40
2019-03-17T18:11:54.060Z,4.30
2019-03-17T18:14:24.293Z,4.30
2019-03-17T18:16:54.454Z,4.40
2019-03-17T18:19:24.690Z,4.40
2019-03-17T18:21:54.957Z,4.40
2019-03-17T18:24:25.339Z,4.40
2019-03-17T18:26:56.823Z,4.50
2019-03-17T18:29:27.238Z,4.50
2019-03-17T18:31:57.339Z,4.50
2019-03-17T18:34:27.486Z,4.50
2019-03-17T18:36:57.804Z,4.50
2019-03-17T18:39:28.078Z,4.50
2019-03-17T18:41:58.413Z,4.50
2019-03-17T18:44:28.659Z,4.50
2019-03-17T18:46:59.593Z,4.50
2019-03-17T18:49:29.759Z,4.40
2019-03-17T18:52:00.059Z,4.40
2019-03-17T18:54:30.125Z,4.40
2019-03-17T18:57:02.016Z,4.50
2019-03-17T18:59:32.273Z,4.70
2019-03-17T19:02:02.609Z,4.80
2019-03-17T19:04:32.959Z,4.90
2019-03-17T19:07:03.324Z,4.90
2019-03-17T19:09:33.784Z,4.90
2019-03-17T19:12:04.541Z,4.80
2019-03-17T19:14:35.016Z,4.70
2019-03-17T19:17:05.228Z,4.70
2019-03-17T19:19:35.388Z,4.70
2019-03-17T19:22:05.584Z,4.70
2019-03-17T19:24:35.804Z,4.80
2019-03-17T19:27:06.056Z,4.80
2019-03-17T19:29:36.149Z,4.90
2019-03-17T19:32:06.583Z,4.90
2019-03-17T19:34:36.779Z,5.00
2019-03-17T19:37:07.421Z,5.10
2019-03-17T19:39:38.584Z,5.20
2019-03-17T19:42:08.855Z,5.20
2019-03-17T19:44:39.035Z,5.30
2019-03-17T19:47:09.241Z,5.30
2019-03-17T19:49:39.522Z,5.30
2019-03-17T19:52:10.792Z,5.40
2019-03-17T19:54:41.068Z,5.50
2019-03-17T19:57:13.051Z,5.50
2019-03-17T19:59:43.579Z,5.50
2019-03-17T20:02:14.046Z,5.50
2019-03-17T20:04:44.245Z,5.60
2019-03-17T20:07:14.511Z,5.50
2019-03-17T20:09:44.982Z,5.50
2019-03-17T20:12:15.060Z,5.40
2019-03-17T20:14:45.233Z,5.30
2019-03-17T20:17:15.369Z,5.20
2019-03-17T20:19:45.790Z,5.10
2019-03-17T20:22:16.093Z,4.90
2019-03-17T20:24:46.274Z,4.70
2019-03-17T20:27:16.459Z,4.60
2019-03-17T20:29:47.886Z,4.40
2019-03-17T20:32:18.172Z,4.30
2019-03-17T20:34:48.795Z,4.10
2019-03-17T20:37:19.180Z,4.00
2019-03-17T20:39:49.347Z,3.90
2019-03-17T20:42:19.578Z,3.80
2019-03-17T20:44:49.746Z,3.70
2019-03-17T20:47:21.695Z,3.60
2019-03-17T20:49:51.902Z,3.50
2019-03-17T20:52:22.041Z,3.50
2019-03-17T20:54:54.839Z,3.50
2019-03-17T20:57:24.854Z,3.40
2019-03-17T20:59:56.816Z,3.40
2019-03-17T21:02:26.916Z,3.30
2019-03-17T21:04:57.880Z,3.30
2019-03-17T21:07:27.971Z,3.20
2019-03-17T21:09:58.338Z,3.20
2019-03-17T21:12:28.449Z,3.20
2019-03-17T21:14:58.625Z,3.10
2019-03-17T21:17:28.764Z,3.10
2019-03-17T21:19:58.849Z,3.10
2019-03-17T21:22:29.001Z,3.10
2019-03-17T21:24:59.167Z,3.10
2019-03-17T21:27:29.207Z,3.10
2019-03-17T21:29:59.396Z,3.10
2019-03-17T21:32:29.797Z,3.00
2019-03-17T21:34:59.980Z,3.10
2019-03-17T21:37:30.133Z,3.10
2019-03-17T21:40:00.424Z,3.10
2019-03-17T21:42:32.959Z,3.10
2019-03-17T21:45:03.427Z,3.00
2019-03-17T21:47:35.568Z,3.00
2019-03-17T21:50:07.207Z,3.00
2019-03-17T21:52:37.464Z,3.00
2019-03-17T21:55:07.811Z,3.00
2019-03-17T21:57:38.461Z,2.90
2019-03-17T22:00:10.965Z,2.90
2019-03-17T22:02:41.190Z,2.90
2019-03-17T22:05:12.443Z,2.90
2019-03-17T22:07:49.552Z,2.90
2019-03-17T22:10:14.911Z,2.90
2019-03-17T22:12:45.095Z,2.90
2019-03-17T22:15:15.676Z,2.90
2019-03-17T22:17:45.908Z,3.00
2019-03-17T22:20:16.252Z,3.00
2019-03-17T22:22:48.185Z,2.90
2019-03-17T22:25:18.328Z,2.90
2019-03-17T22:27:49.848Z,2.90
2019-03-17T22:30:19.978Z,2.90
2019-03-17T22:32:54.693Z,2.90
2019-03-17T22:35:24.848Z,2.90
2019-03-17T22:37:55.894Z,2.80
2019-03-17T22:40:26.475Z,2.80
2019-03-17T22:42:58.039Z,2.80
2019-03-17T22:45:28.341Z,2.70
2019-03-17T22:48:03.505Z,2.70
2019-03-17T22:50:39.009Z,2.70
2019-03-17T22:53:08.938Z,2.70
2019-03-17T22:55:39.520Z,2.70
2019-03-17T22:58:09.722Z,2.70
2019-03-17T23:00:41.425Z,2.70
2019-03-17T23:03:12.765Z,2.60
2019-03-17T23:05:42.841Z,2.60
2019-03-17T23:08:12.968Z,2.60
2019-03-17T23:10:49.204Z,2.60
2019-03-17T23:13:19.271Z,2.60
2019-03-17T23:15:49.690Z,2.60
2019-03-17T23:18:19.896Z,2.60
2019-03-17T23:20:50.188Z,2.60
2019-03-17T23:23:20.232Z,2.60
2019-03-17T23:25:50.329Z,2.60
2019-03-17T23:28:20.382Z,2.60
2019-03-17T23:30:52.442Z,2.60
2019-03-17T23:33:22.775Z,2.60
2019-03-17T23:35:52.873Z,2.60
2019-03-17T23:38:22.913Z,2.60
2019-03-17T23:40:53.333Z,2.60
2019-03-17T23:43:23.561Z,2.60
2019-03-17T23:45:53.696Z,2.60
2019-03-17T23:48:23.821Z,2.70
2019-03-17T23:50:53.948Z,2.60
2019-03-17T23:53:24.276Z,2.60
2019-03-17T23:55:54.497Z,2.60
2019-03-17T23:58:24.919Z,2.60
